sensor_id;sensor_type;location;lat;lon;timestamp;pressure;altitude;pressure_sealevel;temperature;humidity
4469;BME280;2247;42.666;23.292;2023-04-04T00:00:50;92958.91;;;10.04;84.63
4469;BME280;2247;42.666;23.292;2023-04-04T00:03:17;92951.44;;;9.98;84.76
4469;BME280;2247;42.666;23.292;2023-04-04T00:05:44;92952.03;;;10.17;84.73
4469;BME280;2247;42.666;23.292;2023-04-04T00:08:12;92956.50;;;10.16;84.40
4469;BME280;2247;42.666;23.292;2023-04-04T00:10:39;92966.53;;;10.37;84.00
4469;BME280;2247;42.666;23.292;2023-04-04T00:13:06;92959.38;;;10.29;82.99
4469;BME280;2247;42.666;23.292;2023-04-04T00:15:34;92977.16;;;10.23;82.81
4469;BME280;2247;42.666;23.292;2023-04-04T00:18:01;92978.44;;;10.34;82.50
4469;BME280;2247;42.666;23.292;2023-04-04T00:20:28;92969.28;;;10.32;80.73
4469;BME280;2247;42.666;23.292;2023-04-04T00:22:55;92966.50;;;10.28;79.76
4469;BME280;2247;42.666;23.292;2023-04-04T00:25:24;92972.13;;;10.44;80.30
4469;BME280;2247;42.666;23.292;2023-04-04T00:27:50;92964.38;;;10.47;79.38
4469;BME280;2247;42.666;23.292;2023-04-04T00:30:17;92960.78;;;10.35;78.18
4469;BME280;2247;42.666;23.292;2023-04-04T00:32:45;92947.66;;;10.43;78.10
4469;BME280;2247;42.666;23.292;2023-04-04T00:35:11;92946.88;;;10.51;78.24
4469;BME280;2247;42.666;23.292;2023-04-04T00:37:39;92944.56;;;10.41;78.17
4469;BME280;2247;42.666;23.292;2023-04-04T00:40:07;92938.50;;;10.41;78.97
4469;BME280;2247;42.666;23.292;2023-04-04T00:42:35;92937.91;;;10.52;78.77
4469;BME280;2247;42.666;23.292;2023-04-04T00:45:03;92943.81;;;10.49;79.13
4469;BME280;2247;42.666;23.292;2023-04-04T00:47:30;92946.25;;;10.46;79.20
4469;BME280;2247;42.666;23.292;2023-04-04T00:49:57;92926.13;;;10.41;79.48
4469;BME280;2247;42.666;23.292;2023-04-04T00:52:24;92927.03;;;10.45;79.32
4469;BME280;2247;42.666;23.292;2023-04-04T00:54:51;92932.38;;;10.62;79.16
4469;BME280;2247;42.666;23.292;2023-04-04T00:57:18;92908.31;;;10.47;79.07
4469;BME280;2247;42.666;23.292;2023-04-04T00:59:48;92923.81;;;10.48;79.11
4469;BME280;2247;42.666;23.292;2023-04-04T01:02:15;92933.09;;;10.37;79.18
4469;BME280;2247;42.666;23.292;2023-04-04T01:04:42;92933.19;;;10.32;79.68
4469;BME280;2247;42.666;23.292;2023-04-04T01:07:10;92937.06;;;10.26;79.92
4469;BME280;2247;42.666;23.292;2023-04-04T01:09:37;92946.25;;;10.37;80.04
4469;BME280;2247;42.666;23.292;2023-04-04T01:12:04;92957.88;;;10.45;79.22
4469;BME280;2247;42.666;23.292;2023-04-04T01:14:31;92949.66;;;10.46;79.29
4469;BME280;2247;42.666;23.292;2023-04-04T01:17:00;92959.16;;;10.56;79.39
4469;BME280;2247;42.666;23.292;2023-04-04T01:19:31;92945.06;;;10.60;79.34
4469;BME280;2247;42.666;23.292;2023-04-04T01:22:00;92950.97;;;10.57;78.90
4469;BME280;2247;42.666;23.292;2023-04-04T01:24:32;92953.25;;;10.59;79.25
4469;BME280;2247;42.666;23.292;2023-04-04T01:27:01;92955.00;;;10.63;79.67
4469;BME280;2247;42.666;23.292;2023-04-04T01:29:27;92954.38;;;10.66;79.30
4469;BME280;2247;42.666;23.292;2023-04-04T01:31:56;92943.06;;;10.66;79.85
4469;BME280;2247;42.666;23.292;2023-04-04T01:34:28;92946.03;;;10.64;79.54
4469;BME280;2247;42.666;23.292;2023-04-04T01:37:01;92947.44;;;10.71;78.75
4469;BME280;2247;42.666;23.292;2023-04-04T01:39:31;92937.50;;;10.68;78.65
4469;BME280;2247;42.666;23.292;2023-04-04T01:42:03;92934.09;;;10.67;77.56
4469;BME280;2247;42.666;23.292;2023-04-04T01:44:32;92924.00;;;10.60;77.30
4469;BME280;2247;42.666;23.292;2023-04-04T01:46:59;92918.25;;;10.58;77.79
4469;BME280;2247;42.666;23.292;2023-04-04T01:49:26;92911.31;;;10.62;77.63
4469;BME280;2247;42.666;23.292;2023-04-04T01:51:53;92903.09;;;10.73;76.58
4469;BME280;2247;42.666;23.292;2023-04-04T01:54:20;92898.31;;;10.75;76.07
4469;BME280;2247;42.666;23.292;2023-04-04T01:56:47;92894.28;;;10.69;75.99
4469;BME280;2247;42.666;23.292;2023-04-04T01:59:15;92890.84;;;10.68;76.62
4469;BME280;2247;42.666;23.292;2023-04-04T02:01:42;92888.53;;;10.75;76.36
4469;BME280;2247;42.666;23.292;2023-04-04T02:04:09;92894.59;;;10.76;75.71
4469;BME280;2247;42.666;23.292;2023-04-04T02:06:37;92876.31;;;10.71;75.74
4469;BME280;2247;42.666;23.292;2023-04-04T02:09:04;92904.97;;;10.89;76.04
4469;BME280;2247;42.666;23.292;2023-04-04T02:11:31;92904.38;;;11.10;75.51
4469;BME280;2247;42.666;23.292;2023-04-04T02:13:58;92908.41;;;11.33;74.92
4469;BME280;2247;42.666;23.292;2023-04-04T02:16:26;92899.25;;;11.48;74.18
4469;BME280;2247;42.666;23.292;2023-04-04T02:18:55;92899.56;;;11.46;73.19
4469;BME280;2247;42.666;23.292;2023-04-04T02:21:21;92894.88;;;11.43;73.61
4469;BME280;2247;42.666;23.292;2023-04-04T02:23:50;92883.13;;;11.40;73.35
4469;BME280;2247;42.666;23.292;2023-04-04T02:26:16;92896.75;;;11.42;73.57
4469;BME280;2247;42.666;23.292;2023-04-04T02:28:44;92889.91;;;11.41;73.20
4469;BME280;2247;42.666;23.292;2023-04-04T02:31:11;92892.91;;;11.31;73.33
4469;BME280;2247;42.666;23.292;2023-04-04T02:33:39;92899.41;;;11.25;73.31
4469;BME280;2247;42.666;23.292;2023-04-04T02:36:06;92891.34;;;11.04;73.21
4469;BME280;2247;42.666;23.292;2023-04-04T02:38:33;92884.38;;;10.91;74.03
4469;BME280;2247;42.666;23.292;2023-04-04T02:41:00;92889.94;;;10.90;73.98
4469;BME280;2247;42.666;23.292;2023-04-04T02:43:27;92889.78;;;10.78;73.98
4469;BME280;2247;42.666;23.292;2023-04-04T02:45:53;92890.69;;;10.73;74.20
4469;BME280;2247;42.666;23.292;2023-04-04T02:48:20;92888.22;;;10.68;74.76
4469;BME280;2247;42.666;23.292;2023-04-04T02:50:50;92896.28;;;10.63;74.46
4469;BME280;2247;42.666;23.292;2023-04-04T02:53:17;92890.69;;;10.56;74.38
4469;BME280;2247;42.666;23.292;2023-04-04T02:55:44;92901.38;;;10.59;74.73
4469;BME280;2247;42.666;23.292;2023-04-04T02:58:11;92898.59;;;10.64;74.46
4469;BME280;2247;42.666;23.292;2023-04-04T03:00:38;92902.66;;;10.71;74.33
4469;BME280;2247;42.666;23.292;2023-04-04T03:03:05;92898.16;;;10.80;73.95
4469;BME280;2247;42.666;23.292;2023-04-04T03:05:32;92906.09;;;11.05;73.88
4469;BME280;2247;42.666;23.292;2023-04-04T03:08:00;92907.16;;;11.22;73.47
4469;BME280;2247;42.666;23.292;2023-04-04T03:10:29;92902.34;;;11.41;72.61
4469;BME280;2247;42.666;23.292;2023-04-04T03:12:56;92915.19;;;11.60;72.18
4469;BME280;2247;42.666;23.292;2023-04-04T03:15:22;92894.53;;;11.62;71.12
4469;BME280;2247;42.666;23.292;2023-04-04T03:17:50;92899.69;;;11.75;71.16
4469;BME280;2247;42.666;23.292;2023-04-04T03:20:17;92910.66;;;11.95;71.33
4469;BME280;2247;42.666;23.292;2023-04-04T03:22:44;92912.34;;;11.99;70.31
4469;BME280;2247;42.666;23.292;2023-04-04T03:25:13;92906.75;;;12.01;70.19
4469;BME280;2247;42.666;23.292;2023-04-04T03:27:40;92908.13;;;12.07;70.20
4469;BME280;2247;42.666;23.292;2023-04-04T03:30:09;92901.44;;;12.09;69.88
4469;BME280;2247;42.666;23.292;2023-04-04T03:32:37;92905.91;;;12.17;69.50
4469;BME280;2247;42.666;23.292;2023-04-04T03:35:05;92916.13;;;12.28;69.57
4469;BME280;2247;42.666;23.292;2023-04-04T03:37:32;92913.31;;;12.33;69.51
4469;BME280;2247;42.666;23.292;2023-04-04T03:39:59;92914.16;;;12.45;68.78
4469;BME280;2247;42.666;23.292;2023-04-04T03:42:32;92911.69;;;12.49;68.76
4469;BME280;2247;42.666;23.292;2023-04-04T03:44:59;92916.31;;;12.52;68.65
4469;BME280;2247;42.666;23.292;2023-04-04T03:47:27;92914.13;;;12.54;68.40
4469;BME280;2247;42.666;23.292;2023-04-04T03:49:54;92911.50;;;12.54;68.66
4469;BME280;2247;42.666;23.292;2023-04-04T03:52:21;92915.97;;;12.62;68.44
4469;BME280;2247;42.666;23.292;2023-04-04T03:54:48;92908.34;;;12.60;69.04
4469;BME280;2247;42.666;23.292;2023-04-04T03:57:15;92905.72;;;12.60;68.26
4469;BME280;2247;42.666;23.292;2023-04-04T03:59:44;92907.72;;;12.63;68.42
4469;BME280;2247;42.666;23.292;2023-04-04T04:02:11;92916.75;;;12.62;68.25
4469;BME280;2247;42.666;23.292;2023-04-04T04:04:38;92911.00;;;12.60;68.05
4469;BME280;2247;42.666;23.292;2023-04-04T04:07:05;92911.13;;;12.64;67.76
4469;BME280;2247;42.666;23.292;2023-04-04T04:09:32;92920.47;;;12.61;68.00
4469;BME280;2247;42.666;23.292;2023-04-04T04:11:59;92911.00;;;12.60;68.39
4469;BME280;2247;42.666;23.292;2023-04-04T04:14:26;92914.41;;;12.61;68.66
4469;BME280;2247;42.666;23.292;2023-04-04T04:16:55;92905.00;;;12.51;68.88
4469;BME280;2247;42.666;23.292;2023-04-04T04:19:22;92910.53;;;12.58;68.92
4469;BME280;2247;42.666;23.292;2023-04-04T04:21:48;92923.88;;;12.62;68.58
4469;BME280;2247;42.666;23.292;2023-04-04T04:24:15;92916.31;;;12.52;69.22
4469;BME280;2247;42.666;23.292;2023-04-04T04:26:42;92918.84;;;12.48;69.56
4469;BME280;2247;42.666;23.292;2023-04-04T04:29:09;92928.94;;;12.46;70.26
4469;BME280;2247;42.666;23.292;2023-04-04T04:36:52;92941.88;;;12.39;70.55
4469;BME280;2247;42.666;23.292;2023-04-04T04:39:19;92938.16;;;12.32;70.23
4469;BME280;2247;42.666;23.292;2023-04-04T04:41:46;92944.22;;;12.32;70.66
4469;BME280;2247;42.666;23.292;2023-04-04T04:44:13;92942.53;;;12.28;70.88
4469;BME280;2247;42.666;23.292;2023-04-04T04:46:40;92945.97;;;12.19;71.04
4469;BME280;2247;42.666;23.292;2023-04-04T04:49:08;92948.72;;;12.32;70.73
4469;BME280;2247;42.666;23.292;2023-04-04T04:51:34;92949.66;;;12.36;70.31
4469;BME280;2247;42.666;23.292;2023-04-04T04:54:03;92958.50;;;12.40;70.36
4469;BME280;2247;42.666;23.292;2023-04-04T04:56:29;92950.56;;;12.40;70.29
4469;BME280;2247;42.666;23.292;2023-04-04T04:58:56;92955.34;;;12.46;70.08
4469;BME280;2247;42.666;23.292;2023-04-04T05:01:23;92961.22;;;12.52;70.24
4469;BME280;2247;42.666;23.292;2023-04-04T05:03:50;92960.94;;;12.45;70.77
4469;BME280;2247;42.666;23.292;2023-04-04T05:06:17;92968.94;;;12.36;70.30
4469;BME280;2247;42.666;23.292;2023-04-04T05:08:44;92965.84;;;12.26;70.50
4469;BME280;2247;42.666;23.292;2023-04-04T05:11:13;92979.06;;;12.17;71.65
4469;BME280;2247;42.666;23.292;2023-04-04T05:13:40;92975.50;;;12.21;72.07
4469;BME280;2247;42.666;23.292;2023-04-04T05:16:07;92970.53;;;12.20;72.20
4469;BME280;2247;42.666;23.292;2023-04-04T05:18:34;92975.81;;;12.20;71.62
4469;BME280;2247;42.666;23.292;2023-04-04T05:21:01;92978.25;;;12.25;71.88
4469;BME280;2247;42.666;23.292;2023-04-04T05:23:28;92972.38;;;12.19;71.82
4469;BME280;2247;42.666;23.292;2023-04-04T05:25:54;92976.88;;;12.28;72.01
4469;BME280;2247;42.666;23.292;2023-04-04T05:28:23;92986.03;;;12.30;71.93
4469;BME280;2247;42.666;23.292;2023-04-04T05:30:51;92983.31;;;12.47;71.30
4469;BME280;2247;42.666;23.292;2023-04-04T05:33:18;92984.84;;;12.57;71.61
4469;BME280;2247;42.666;23.292;2023-04-04T05:35:45;92986.84;;;12.60;71.18
4469;BME280;2247;42.666;23.292;2023-04-04T05:38:12;92993.69;;;12.61;71.61
4469;BME280;2247;42.666;23.292;2023-04-04T05:40:38;92992.44;;;12.58;71.50
4469;BME280;2247;42.666;23.292;2023-04-04T05:43:05;92991.53;;;12.54;71.32
4469;BME280;2247;42.666;23.292;2023-04-04T05:45:35;92995.13;;;12.50;71.61
4469;BME280;2247;42.666;23.292;2023-04-04T05:48:04;93001.50;;;12.49;72.35
4469;BME280;2247;42.666;23.292;2023-04-04T05:50:31;92995.91;;;12.50;72.67
4469;BME280;2247;42.666;23.292;2023-04-04T05:52:58;92999.19;;;12.47;72.36
4469;BME280;2247;42.666;23.292;2023-04-04T05:55:25;93002.38;;;12.61;72.23
4469;BME280;2247;42.666;23.292;2023-04-04T05:57:52;93000.25;;;12.55;72.07
4469;BME280;2247;42.666;23.292;2023-04-04T06:00:19;93000.22;;;12.63;71.80
4469;BME280;2247;42.666;23.292;2023-04-04T06:02:47;93001.09;;;12.76;71.76
4469;BME280;2247;42.666;23.292;2023-04-04T06:05:14;92997.97;;;12.74;71.39
4469;BME280;2247;42.666;23.292;2023-04-04T06:07:41;92997.94;;;12.83;71.26
4469;BME280;2247;42.666;23.292;2023-04-04T06:10:08;93000.72;;;12.86;71.04
4469;BME280;2247;42.666;23.292;2023-04-04T06:12:35;92998.31;;;13.02;70.79
4469;BME280;2247;42.666;23.292;2023-04-04T06:15:02;93006.25;;;13.02;70.48
4469;BME280;2247;42.666;23.292;2023-04-04T06:17:29;93013.41;;;13.01;70.46
4469;BME280;2247;42.666;23.292;2023-04-04T06:19:58;93010.13;;;13.05;70.07
4469;BME280;2247;42.666;23.292;2023-04-04T06:22:24;93019.47;;;13.02;70.44
4469;BME280;2247;42.666;23.292;2023-04-04T06:24:51;93016.19;;;13.14;69.78
4469;BME280;2247;42.666;23.292;2023-04-04T06:27:18;93018.16;;;13.17;69.96
4469;BME280;2247;42.666;23.292;2023-04-04T06:29:45;93021.16;;;13.07;69.67
4469;BME280;2247;42.666;23.292;2023-04-04T06:32:12;93023.06;;;12.97;70.02
4469;BME280;2247;42.666;23.292;2023-04-04T06:34:40;93038.19;;;12.88;70.33
4469;BME280;2247;42.666;23.292;2023-04-04T06:37:08;93044.00;;;12.73;70.70
4469;BME280;2247;42.666;23.292;2023-04-04T06:39:35;93048.28;;;12.57;68.14
4469;BME280;2247;42.666;23.292;2023-04-04T06:42:02;93052.69;;;12.27;68.12
4469;BME280;2247;42.666;23.292;2023-04-04T06:44:29;93051.91;;;12.18;67.25
4469;BME280;2247;42.666;23.292;2023-04-04T06:46:56;93060.63;;;11.84;67.31
4469;BME280;2247;42.666;23.292;2023-04-04T06:49:22;93078.91;;;11.63;67.52
4469;BME280;2247;42.666;23.292;2023-04-04T06:51:49;93076.75;;;11.57;67.71
4469;BME280;2247;42.666;23.292;2023-04-04T06:54:18;93079.69;;;11.55;66.58
4469;BME280;2247;42.666;23.292;2023-04-04T06:56:45;93084.78;;;11.43;64.77
4469;BME280;2247;42.666;23.292;2023-04-04T06:59:12;93081.44;;;11.03;64.08
4469;BME280;2247;42.666;23.292;2023-04-04T07:01:48;93111.06;;;10.69;63.28
4469;BME280;2247;42.666;23.292;2023-04-04T07:04:17;93110.91;;;10.43;63.88
4469;BME280;2247;42.666;23.292;2023-04-04T07:06:44;93118.63;;;10.17;64.21
4469;BME280;2247;42.666;23.292;2023-04-04T07:09:11;93133.63;;;10.17;64.67
4469;BME280;2247;42.666;23.292;2023-04-04T07:11:40;93133.72;;;10.25;64.30
4469;BME280;2247;42.666;23.292;2023-04-04T07:14:08;93155.00;;;10.15;63.50
4469;BME280;2247;42.666;23.292;2023-04-04T07:16:34;93166.56;;;9.92;64.00
4469;BME280;2247;42.666;23.292;2023-04-04T07:19:02;93165.41;;;9.84;64.79
4469;BME280;2247;42.666;23.292;2023-04-04T07:21:29;93150.53;;;9.66;65.42
4469;BME280;2247;42.666;23.292;2023-04-04T07:23:57;93177.97;;;9.87;65.19
4469;BME280;2247;42.666;23.292;2023-04-04T07:26:24;93184.31;;;9.86;65.19
4469;BME280;2247;42.666;23.292;2023-04-04T07:28:52;93179.63;;;9.83;64.72
4469;BME280;2247;42.666;23.292;2023-04-04T07:31:19;93202.47;;;9.74;64.62
4469;BME280;2247;42.666;23.292;2023-04-04T07:33:46;93198.16;;;9.78;63.39
4469;BME280;2247;42.666;23.292;2023-04-04T07:36:12;93199.91;;;9.69;62.73
4469;BME280;2247;42.666;23.292;2023-04-04T07:38:42;93209.97;;;9.67;63.21
4469;BME280;2247;42.666;23.292;2023-04-04T07:41:08;93206.16;;;9.73;62.00
4469;BME280;2247;42.666;23.292;2023-04-04T07:43:36;93206.34;;;9.49;62.27
4469;BME280;2247;42.666;23.292;2023-04-04T07:46:04;93213.00;;;9.47;62.69
4469;BME280;2247;42.666;23.292;2023-04-04T07:48:31;93209.38;;;9.43;61.95
4469;BME280;2247;42.666;23.292;2023-04-04T07:50:58;93215.22;;;9.40;62.33
4469;BME280;2247;42.666;23.292;2023-04-04T07:53:27;93201.69;;;9.46;62.97
4469;BME280;2247;42.666;23.292;2023-04-04T07:55:54;93211.91;;;9.34;62.27
4469;BME280;2247;42.666;23.292;2023-04-04T07:58:20;93233.13;;;9.38;62.12
4469;BME280;2247;42.666;23.292;2023-04-04T08:00:47;93230.28;;;9.34;61.97
4469;BME280;2247;42.666;23.292;2023-04-04T08:03:23;93242.34;;;9.22;62.47
4469;BME280;2247;42.666;23.292;2023-04-04T08:05:50;93241.13;;;9.33;62.13
4469;BME280;2247;42.666;23.292;2023-04-04T08:08:17;93241.13;;;9.33;61.89
4469;BME280;2247;42.666;23.292;2023-04-04T08:10:44;93253.56;;;9.41;61.85
4469;BME280;2247;42.666;23.292;2023-04-04T08:13:11;93255.22;;;9.37;62.31
4469;BME280;2247;42.666;23.292;2023-04-04T08:15:38;93253.13;;;9.53;61.34
4469;BME280;2247;42.666;23.292;2023-04-04T08:18:05;93264.97;;;9.50;61.76
4469;BME280;2247;42.666;23.292;2023-04-04T08:20:34;93266.94;;;9.44;61.83
4469;BME280;2247;42.666;23.292;2023-04-04T08:23:01;93258.75;;;9.32;61.36
4469;BME280;2247;42.666;23.292;2023-04-04T08:25:28;93270.81;;;9.33;61.03
4469;BME280;2247;42.666;23.292;2023-04-04T08:27:56;93277.53;;;9.26;61.48
4469;BME280;2247;42.666;23.292;2023-04-04T08:30:23;93278.00;;;9.28;61.34
4469;BME280;2247;42.666;23.292;2023-04-04T08:32:50;93291.88;;;9.15;61.73
4469;BME280;2247;42.666;23.292;2023-04-04T08:35:17;93276.53;;;9.22;61.54
4469;BME280;2247;42.666;23.292;2023-04-04T08:37:46;93282.25;;;9.10;60.61
4469;BME280;2247;42.666;23.292;2023-04-04T08:40:14;93283.41;;;9.04;61.42
4469;BME280;2247;42.666;23.292;2023-04-04T08:42:42;93284.88;;;9.10;60.54
4469;BME280;2247;42.666;23.292;2023-04-04T08:45:11;93286.50;;;9.06;60.86
4469;BME280;2247;42.666;23.292;2023-04-04T08:47:38;93287.88;;;9.03;60.24
4469;BME280;2247;42.666;23.292;2023-04-04T08:50:07;93299.09;;;9.09;60.06
4469;BME280;2247;42.666;23.292;2023-04-04T08:52:34;93304.44;;;9.04;59.86
4469;BME280;2247;42.666;23.292;2023-04-04T08:55:04;93275.72;;;9.07;62.16
4469;BME280;2247;42.666;23.292;2023-04-04T08:57:31;93296.25;;;9.05;60.19
4469;BME280;2247;42.666;23.292;2023-04-04T08:59:58;93318.81;;;9.06;59.80
4469;BME280;2247;42.666;23.292;2023-04-04T09:02:33;93316.13;;;9.12;59.42
4469;BME280;2247;42.666;23.292;2023-04-04T09:05:03;93310.88;;;9.12;59.47
4469;BME280;2247;42.666;23.292;2023-04-04T09:07:32;93304.16;;;8.87;58.76
4469;BME280;2247;42.666;23.292;2023-04-04T09:10:00;93307.28;;;8.89;59.43
4469;BME280;2247;42.666;23.292;2023-04-04T09:12:30;93312.72;;;8.92;59.52
4469;BME280;2247;42.666;23.292;2023-04-04T09:14:58;93312.91;;;9.15;62.24
4469;BME280;2247;42.666;23.292;2023-04-04T09:17:26;93305.38;;;9.40;61.77
4469;BME280;2247;42.666;23.292;2023-04-04T09:19:53;93313.41;;;9.76;61.20
4469;BME280;2247;42.666;23.292;2023-04-04T09:22:20;93312.16;;;10.01;59.58
4469;BME280;2247;42.666;23.292;2023-04-04T09:24:46;93313.91;;;10.19;57.42
4469;BME280;2247;42.666;23.292;2023-04-04T09:27:16;93320.63;;;9.98;55.89
4469;BME280;2247;42.666;23.292;2023-04-04T09:29:44;93316.53;;;9.65;56.61
4469;BME280;2247;42.666;23.292;2023-04-04T09:32:14;93316.28;;;9.47;56.33
4469;BME280;2247;42.666;23.292;2023-04-04T09:34:42;93321.53;;;9.47;57.15
4469;BME280;2247;42.666;23.292;2023-04-04T09:37:09;93322.69;;;9.28;57.23
4469;BME280;2247;42.666;23.292;2023-04-04T09:39:39;93319.25;;;9.27;57.49
4469;BME280;2247;42.666;23.292;2023-04-04T09:42:07;93329.59;;;9.24;57.18
4469;BME280;2247;42.666;23.292;2023-04-04T09:44:35;93336.16;;;9.07;57.30
4469;BME280;2247;42.666;23.292;2023-04-04T09:47:22;93327.00;;;9.05;57.71
4469;BME280;2247;42.666;23.292;2023-04-04T09:49:50;93328.97;;;9.13;57.50
4469;BME280;2247;42.666;23.292;2023-04-04T09:52:17;93340.25;;;9.14;57.71
4469;BME280;2247;42.666;23.292;2023-04-04T09:54:54;93338.53;;;8.90;57.82
4469;BME280;2247;42.666;23.292;2023-04-04T09:57:21;93334.06;;;8.72;58.45
4469;BME280;2247;42.666;23.292;2023-04-04T09:59:48;93330.78;;;8.80;58.61
4469;BME280;2247;42.666;23.292;2023-04-04T10:02:17;93333.84;;;8.87;59.48
4469;BME280;2247;42.666;23.292;2023-04-04T10:04:44;93326.28;;;8.99;58.48
4469;BME280;2247;42.666;23.292;2023-04-04T10:07:11;93343.00;;;8.90;58.47
4469;BME280;2247;42.666;23.292;2023-04-04T10:09:39;93331.84;;;8.98;58.28
4469;BME280;2247;42.666;23.292;2023-04-04T10:12:09;93342.97;;;9.08;58.51
4469;BME280;2247;42.666;23.292;2023-04-04T10:14:37;93336.31;;;8.97;58.07
4469;BME280;2247;42.666;23.292;2023-04-04T10:17:07;93333.34;;;8.85;57.97
4469;BME280;2247;42.666;23.292;2023-04-04T10:19:37;93344.53;;;9.09;58.04
4469;BME280;2247;42.666;23.292;2023-04-04T10:22:04;93343.88;;;9.18;58.82
4469;BME280;2247;42.666;23.292;2023-04-04T10:24:31;93349.28;;;9.26;57.14
4469;BME280;2247;42.666;23.292;2023-04-04T10:26:58;93347.28;;;9.18;56.40
4469;BME280;2247;42.666;23.292;2023-04-04T10:29:25;93351.34;;;9.11;56.07
4469;BME280;2247;42.666;23.292;2023-04-04T10:32:01;93361.78;;;9.16;56.15
4469;BME280;2247;42.666;23.292;2023-04-04T10:34:34;93352.56;;;9.18;56.28
4469;BME280;2247;42.666;23.292;2023-04-04T10:37:07;93369.00;;;9.24;56.85
4469;BME280;2247;42.666;23.292;2023-04-04T10:39:37;93373.44;;;9.09;56.46
4469;BME280;2247;42.666;23.292;2023-04-04T10:42:07;93367.91;;;9.11;55.63
4469;BME280;2247;42.666;23.292;2023-04-04T10:44:37;93372.50;;;9.00;55.96
4469;BME280;2247;42.666;23.292;2023-04-04T10:47:09;93381.03;;;8.92;55.72
4469;BME280;2247;42.666;23.292;2023-04-04T10:49:41;93385.94;;;8.99;55.87
4469;BME280;2247;42.666;23.292;2023-04-04T10:52:10;93378.84;;;8.99;55.50
4469;BME280;2247;42.666;23.292;2023-04-04T10:54:39;93389.28;;;9.04;54.66
4469;BME280;2247;42.666;23.292;2023-04-04T10:57:08;93391.41;;;9.02;55.35
4469;BME280;2247;42.666;23.292;2023-04-04T10:59:56;93393.41;;;9.11;55.56
4469;BME280;2247;42.666;23.292;2023-04-04T11:02:46;93392.44;;;9.20;54.81
4469;BME280;2247;42.666;23.292;2023-04-04T11:05:24;93389.66;;;8.98;55.09
4469;BME280;2247;42.666;23.292;2023-04-04T11:07:55;93387.84;;;8.93;55.58
4469;BME280;2247;42.666;23.292;2023-04-04T11:10:24;93398.72;;;9.05;55.08
4469;BME280;2247;42.666;23.292;2023-04-04T11:12:54;93399.16;;;9.13;55.28
4469;BME280;2247;42.666;23.292;2023-04-04T11:15:24;93405.31;;;9.22;54.47
4469;BME280;2247;42.666;23.292;2023-04-04T11:17:59;93410.22;;;9.09;55.07
4469;BME280;2247;42.666;23.292;2023-04-04T11:20:29;93408.75;;;9.03;55.32
4469;BME280;2247;42.666;23.292;2023-04-04T11:23:08;93415.84;;;9.03;56.06
4469;BME280;2247;42.666;23.292;2023-04-04T11:25:38;93414.50;;;9.05;55.00
4469;BME280;2247;42.666;23.292;2023-04-04T11:28:08;93409.88;;;8.97;54.91
4469;BME280;2247;42.666;23.292;2023-04-04T11:30:37;93387.72;;;8.66;54.96
4469;BME280;2247;42.666;23.292;2023-04-04T11:33:10;93421.59;;;9.05;55.29
4469;BME280;2247;42.666;23.292;2023-04-04T11:35:38;93421.28;;;9.06;54.95
4469;BME280;2247;42.666;23.292;2023-04-04T11:38:13;93425.41;;;8.94;55.70
4469;BME280;2247;42.666;23.292;2023-04-04T11:40:42;93424.88;;;8.97;56.02
4469;BME280;2247;42.666;23.292;2023-04-04T11:43:18;93406.75;;;8.77;56.33
4469;BME280;2247;42.666;23.292;2023-04-04T11:45:47;93421.97;;;8.98;55.82
4469;BME280;2247;42.666;23.292;2023-04-04T11:48:15;93426.19;;;8.76;56.29
4469;BME280;2247;42.666;23.292;2023-04-04T11:50:45;93421.50;;;8.73;56.68
4469;BME280;2247;42.666;23.292;2023-04-04T11:53:15;93422.34;;;8.68;56.65
4469;BME280;2247;42.666;23.292;2023-04-04T11:55:43;93430.59;;;8.80;56.44
4469;BME280;2247;42.666;23.292;2023-04-04T11:58:16;93426.41;;;8.79;56.78
4469;BME280;2247;42.666;23.292;2023-04-04T12:00:44;93421.81;;;8.71;56.93
4469;BME280;2247;42.666;23.292;2023-04-04T12:03:11;93425.06;;;8.63;56.73
4469;BME280;2247;42.666;23.292;2023-04-04T12:05:39;93432.97;;;8.58;56.80
4469;BME280;2247;42.666;23.292;2023-04-04T12:08:09;93428.38;;;8.50;57.05
4469;BME280;2247;42.666;23.292;2023-04-04T12:10:39;93438.03;;;8.54;56.85
4469;BME280;2247;42.666;23.292;2023-04-04T12:13:07;93431.91;;;8.59;56.87
4469;BME280;2247;42.666;23.292;2023-04-04T12:15:35;93433.09;;;8.48;56.69
4469;BME280;2247;42.666;23.292;2023-04-04T12:18:04;93436.78;;;8.47;56.91
4469;BME280;2247;42.666;23.292;2023-04-04T12:20:32;93430.56;;;8.43;57.08
4469;BME280;2247;42.666;23.292;2023-04-04T12:22:59;93436.00;;;8.46;56.89
4469;BME280;2247;42.666;23.292;2023-04-04T12:25:26;93428.22;;;8.60;56.58
4469;BME280;2247;42.666;23.292;2023-04-04T12:28:00;93440.13;;;8.52;56.27
4469;BME280;2247;42.666;23.292;2023-04-04T12:30:28;93442.38;;;8.40;56.94
4469;BME280;2247;42.666;23.292;2023-04-04T12:32:56;93443.09;;;8.46;56.71
4469;BME280;2247;42.666;23.292;2023-04-04T12:35:22;93447.56;;;8.21;57.72
4469;BME280;2247;42.666;23.292;2023-04-04T12:38:00;93434.38;;;8.26;57.01
4469;BME280;2247;42.666;23.292;2023-04-04T12:40:31;93452.28;;;8.19;57.33
4469;BME280;2247;42.666;23.292;2023-04-04T12:43:04;93447.53;;;7.98;58.01
4469;BME280;2247;42.666;23.292;2023-04-04T12:45:32;93445.09;;;8.06;57.91
4469;BME280;2247;42.666;23.292;2023-04-04T12:48:08;93449.88;;;7.99;58.29
4469;BME280;2247;42.666;23.292;2023-04-04T12:50:48;93449.97;;;7.89;58.74
4469;BME280;2247;42.666;23.292;2023-04-04T12:53:15;93455.72;;;7.91;58.38
4469;BME280;2247;42.666;23.292;2023-04-04T12:55:44;93459.84;;;7.97;58.75
4469;BME280;2247;42.666;23.292;2023-04-04T12:58:14;93461.34;;;8.08;58.36
4469;BME280;2247;42.666;23.292;2023-04-04T13:00:41;93461.50;;;8.17;58.32
4469;BME280;2247;42.666;23.292;2023-04-04T13:03:08;93452.28;;;8.19;58.37
4469;BME280;2247;42.666;23.292;2023-04-04T13:05:35;93460.31;;;8.04;58.89
4469;BME280;2247;42.666;23.292;2023-04-04T13:08:07;93453.81;;;8.02;58.87
4469;BME280;2247;42.666;23.292;2023-04-04T13:10:56;93468.84;;;7.91;58.84
4469;BME280;2247;42.666;23.292;2023-04-04T13:13:34;93472.06;;;7.83;59.47
4469;BME280;2247;42.666;23.292;2023-04-04T13:16:03;93483.66;;;7.77;59.37
4469;BME280;2247;42.666;23.292;2023-04-04T13:18:35;93490.19;;;7.79;59.64
4469;BME280;2247;42.666;23.292;2023-04-04T13:21:04;93489.41;;;7.79;59.80
4469;BME280;2247;42.666;23.292;2023-04-04T13:23:33;93488.88;;;7.77;60.38
4469;BME280;2247;42.666;23.292;2023-04-04T13:26:00;93480.56;;;7.70;60.56